sensor_id;sensor_type;location;lat;lon;timestamp;temperature;humidity
21459;DHT22;10891;49.350;19.386;2023-04-01T00:00:57;7.90;99.90
21459;DHT22;10891;49.350;19.386;2023-04-01T00:03:25;7.90;99.90
21459;DHT22;10891;49.350;19.386;2023-04-01T00:05:53;7.90;99.90
21459;DHT22;10891;49.350;19.386;2023-04-01T00:08:20;7.90;99.90
21459;DHT22;10891;49.350;19.386;2023-04-01T00:10:47;7.90;99.90
21459;DHT22;10891;49.350;19.386;2023-04-01T00:13:14;8.00;99.90
21459;DHT22;10891;49.350;19.386;2023-04-01T00:15:41;8.00;99.90
21459;DHT22;10891;49.350;19.386;2023-04-01T00:18:08;8.00;99.90
21459;DHT22;10891;49.350;19.386;2023-04-01T00:20:35;8.00;99.90
21459;DHT22;10891;49.350;19.386;2023-04-01T00:23:03;8.00;99.90
21459;DHT22;10891;49.350;19.386;2023-04-01T00:25:31;8.10;99.90
21459;DHT22;10891;49.350;19.386;2023-04-01T00:27:58;8.10;99.90
21459;DHT22;10891;49.350;19.386;2023-04-01T00:30:25;8.10;99.90
21459;DHT22;10891;49.350;19.386;2023-04-01T00:32:52;8.10;99.90
21459;DHT22;10891;49.350;19.386;2023-04-01T00:35:19;8.10;99.90
21459;DHT22;10891;49.350;19.386;2023-04-01T00:37:46;8.10;99.90
21459;DHT22;10891;49.350;19.386;2023-04-01T00:40:24;8.10;99.90
21459;DHT22;10891;49.350;19.386;2023-04-01T00:42:51;8.00;99.90
21459;DHT22;10891;49.350;19.386;2023-04-01T00:45:33;8.00;99.90
21459;DHT22;10891;49.350;19.386;2023-04-01T00:48:03;8.00;99.90
21459;DHT22;10891;49.350;19.386;2023-04-01T00:50:33;8.00;99.90
21459;DHT22;10891;49.350;19.386;2023-04-01T00:53:01;8.00;99.90
21459;DHT22;10891;49.350;19.386;2023-04-01T00:55:33;8.00;99.90
21459;DHT22;10891;49.350;19.386;2023-04-01T00:58:03;8.00;99.90
21459;DHT22;10891;49.350;19.386;2023-04-01T01:00:31;7.90;99.90
21459;DHT22;10891;49.350;19.386;2023-04-01T01:02:58;7.70;99.90
21459;DHT22;10891;49.350;19.386;2023-04-01T01:05:34;7.50;99.90
21459;DHT22;10891;49.350;19.386;2023-04-01T01:08:09;7.40;99.90
21459;DHT22;10891;49.350;19.386;2023-04-01T01:10:42;7.40;99.90
21459;DHT22;10891;49.350;19.386;2023-04-01T01:13:17;7.40;99.90
21459;DHT22;10891;49.350;19.386;2023-04-01T01:15:46;7.50;99.90
21459;DHT22;10891;49.350;19.386;2023-04-01T01:18:19;7.60;99.90
21459;DHT22;10891;49.350;19.386;2023-04-01T01:21:08;7.60;99.90
21459;DHT22;10891;49.350;19.386;2023-04-01T01:24:07;7.60;99.90
21459;DHT22;10891;49.350;19.386;2023-04-01T01:26:51;7.60;99.90
21459;DHT22;10891;49.350;19.386;2023-04-01T01:29:55;7.70;99.90
21459;DHT22;10891;49.350;19.386;2023-04-01T01:32:42;7.60;99.90
21459;DHT22;10891;49.350;19.386;2023-04-01T01:35:22;7.60;99.90
21459;DHT22;10891;49.350;19.386;2023-04-01T01:37:54;7.60;99.90
21459;DHT22;10891;49.350;19.386;2023-04-01T01:40:22;7.60;99.90
21459;DHT22;10891;49.350;19.386;2023-04-01T01:42:55;7.60;99.90
21459;DHT22;10891;49.350;19.386;2023-04-01T01:45:26;7.70;99.90
21459;DHT22;10891;49.350;19.386;2023-04-01T01:47:55;7.70;99.90
21459;DHT22;10891;49.350;19.386;2023-04-01T01:50:26;7.70;99.90
21459;DHT22;10891;49.350;19.386;2023-04-01T01:53:03;7.80;99.90
21459;DHT22;10891;49.350;19.386;2023-04-01T01:55:32;7.90;99.90
21459;DHT22;10891;49.350;19.386;2023-04-01T01:58:02;7.90;99.90
21459;DHT22;10891;49.350;19.386;2023-04-01T02:00:33;7.90;99.90
21459;DHT22;10891;49.350;19.386;2023-04-01T02:03:01;7.80;99.90
21459;DHT22;10891;49.350;19.386;2023-04-01T02:05:30;7.70;99.90
21459;DHT22;10891;49.350;19.386;2023-04-01T02:08:01;7.70;99.90
21459;DHT22;10891;49.350;19.386;2023-04-01T02:10:33;7.60;99.90
21459;DHT22;10891;49.350;19.386;2023-04-01T02:13:05;7.50;99.90
21459;DHT22;10891;49.350;19.386;2023-04-01T02:15:38;7.30;99.90
21459;DHT22;10891;49.350;19.386;2023-04-01T02:18:08;7.20;99.90
21459;DHT22;10891;49.350;19.386;2023-04-01T02:20:37;7.00;99.90
21459;DHT22;10891;49.350;19.386;2023-04-01T02:23:06;6.90;99.90
21459;DHT22;10891;49.350;19.386;2023-04-01T02:25:35;6.80;99.90
21459;DHT22;10891;49.350;19.386;2023-04-01T02:28:06;6.70;99.90
21459;DHT22;10891;49.350;19.386;2023-04-01T02:30:35;6.50;99.90
21459;DHT22;10891;49.350;19.386;2023-04-01T02:33:04;6.30;99.90
21459;DHT22;10891;49.350;19.386;2023-04-01T02:35:33;6.20;99.90
21459;DHT22;10891;49.350;19.386;2023-04-01T02:38:03;6.10;99.90
21459;DHT22;10891;49.350;19.386;2023-04-01T02:40:44;6.00;99.90
21459;DHT22;10891;49.350;19.386;2023-04-01T02:43:12;5.90;99.90
21459;DHT22;10891;49.350;19.386;2023-04-01T02:45:39;6.00;99.90
21459;DHT22;10891;49.350;19.386;2023-04-01T02:48:06;6.10;99.90
21459;DHT22;10891;49.350;19.386;2023-04-01T02:50:33;6.30;99.90
21459;DHT22;10891;49.350;19.386;2023-04-01T02:53:00;6.50;99.90
21459;DHT22;10891;49.350;19.386;2023-04-01T02:55:30;6.70;99.90
21459;DHT22;10891;49.350;19.386;2023-04-01T02:57:56;6.80;99.90
21459;DHT22;10891;49.350;19.386;2023-04-01T03:00:24;6.90;99.90
21459;DHT22;10891;49.350;19.386;2023-04-01T03:02:50;7.00;99.90
21459;DHT22;10891;49.350;19.386;2023-04-01T03:05:17;7.10;99.90
21459;DHT22;10891;49.350;19.386;2023-04-01T03:07:45;7.10;99.90
21459;DHT22;10891;49.350;19.386;2023-04-01T03:10:12;7.20;99.90
21459;DHT22;10891;49.350;19.386;2023-04-01T03:12:40;7.20;99.90
21459;DHT22;10891;49.350;19.386;2023-04-01T03:15:10;7.30;99.90
21459;DHT22;10891;49.350;19.386;2023-04-01T03:17:39;7.30;99.90
21459;DHT22;10891;49.350;19.386;2023-04-01T03:20:07;7.30;99.90
21459;DHT22;10891;49.350;19.386;2023-04-01T03:22:36;7.30;99.90
21459;DHT22;10891;49.350;19.386;2023-04-01T03:25:04;7.30;99.90
21459;DHT22;10891;49.350;19.386;2023-04-01T03:27:33;7.40;99.90
21459;DHT22;10891;49.350;19.386;2023-04-01T03:30:01;7.50;99.90
21459;DHT22;10891;49.350;19.386;2023-04-01T03:32:28;7.50;99.90
21459;DHT22;10891;49.350;19.386;2023-04-01T03:34:55;7.50;99.90
21459;DHT22;10891;49.350;19.386;2023-04-01T03:37:23;7.50;99.90
21459;DHT22;10891;49.350;19.386;2023-04-01T03:39:50;7.50;99.90
21459;DHT22;10891;49.350;19.386;2023-04-01T03:42:17;7.50;99.90
21459;DHT22;10891;49.350;19.386;2023-04-01T03:44:44;7.40;99.90
21459;DHT22;10891;49.350;19.386;2023-04-01T03:47:13;7.30;99.90
21459;DHT22;10891;49.350;19.386;2023-04-01T03:49:39;7.30;99.90
21459;DHT22;10891;49.350;19.386;2023-04-01T03:52:09;7.30;99.90
21459;DHT22;10891;49.350;19.386;2023-04-01T03:54:36;7.20;99.90
21459;DHT22;10891;49.350;19.386;2023-04-01T03:57:03;7.20;99.90
21459;DHT22;10891;49.350;19.386;2023-04-01T03:59:30;7.20;99.90
21459;DHT22;10891;49.350;19.386;2023-04-01T04:01:57;7.10;99.90
21459;DHT22;10891;49.350;19.386;2023-04-01T04:04:25;7.10;99.90
21459;DHT22;10891;49.350;19.386;2023-04-01T04:06:52;7.10;99.90
21459;DHT22;10891;49.350;19.386;2023-04-01T04:09:19;7.10;99.90
21459;DHT22;10891;49.350;19.386;2023-04-01T04:11:46;7.10;99.90
21459;DHT22;10891;49.350;19.386;2023-04-01T04:14:13;7.00;99.90
21459;DHT22;10891;49.350;19.386;2023-04-01T04:16:40;7.00;99.90
21459;DHT22;10891;49.350;19.386;2023-04-01T04:19:07;6.90;99.90
21459;DHT22;10891;49.350;19.386;2023-04-01T04:21:35;7.00;99.90
21459;DHT22;10891;49.350;19.386;2023-04-01T04:24:02;7.00;99.90
21459;DHT22;10891;49.350;19.386;2023-04-01T04:26:29;7.10;99.90
21459;DHT22;10891;49.350;19.386;2023-04-01T04:28:56;7.20;99.90
21459;DHT22;10891;49.350;19.386;2023-04-01T04:31:25;7.30;99.90
21459;DHT22;10891;49.350;19.386;2023-04-01T04:33:52;7.30;99.90
21459;DHT22;10891;49.350;19.386;2023-04-01T04:36:20;7.40;99.90
21459;DHT22;10891;49.350;19.386;2023-04-01T04:38:49;7.40;99.90
21459;DHT22;10891;49.350;19.386;2023-04-01T04:41:17;7.50;99.90
21459;DHT22;10891;49.350;19.386;2023-04-01T04:43:50;7.40;99.90
21459;DHT22;10891;49.350;19.386;2023-04-01T04:46:18;7.50;99.90
21459;DHT22;10891;49.350;19.386;2023-04-01T04:48:46;7.50;99.90
21459;DHT22;10891;49.350;19.386;2023-04-01T04:51:14;7.60;99.90
21459;DHT22;10891;49.350;19.386;2023-04-01T04:53:42;7.70;99.90
21459;DHT22;10891;49.350;19.386;2023-04-01T04:56:11;7.70;99.90
21459;DHT22;10891;49.350;19.386;2023-04-01T04:58:38;7.80;99.90
21459;DHT22;10891;49.350;19.386;2023-04-01T05:01:07;7.90;99.90
21459;DHT22;10891;49.350;19.386;2023-04-01T05:03:34;8.00;99.90
21459;DHT22;10891;49.350;19.386;2023-04-01T05:06:01;8.00;99.90
21459;DHT22;10891;49.350;19.386;2023-04-01T05:08:28;8.00;99.90
21459;DHT22;10891;49.350;19.386;2023-04-01T05:10:56;8.00;99.90
21459;DHT22;10891;49.350;19.386;2023-04-01T05:13:25;8.10;99.90
21459;DHT22;10891;49.350;19.386;2023-04-01T05:15:52;8.20;99.90
21459;DHT22;10891;49.350;19.386;2023-04-01T05:18:19;8.30;99.90
21459;DHT22;10891;49.350;19.386;2023-04-01T05:20:47;8.50;99.90
21459;DHT22;10891;49.350;19.386;2023-04-01T05:23:15;8.60;99.90
21459;DHT22;10891;49.350;19.386;2023-04-01T05:25:42;8.70;99.90
21459;DHT22;10891;49.350;19.386;2023-04-01T05:28:10;8.70;99.90
21459;DHT22;10891;49.350;19.386;2023-04-01T05:30:43;8.70;99.90
21459;DHT22;10891;49.350;19.386;2023-04-01T05:33:11;8.60;99.90
21459;DHT22;10891;49.350;19.386;2023-04-01T05:35:38;8.60;99.90
21459;DHT22;10891;49.350;19.386;2023-04-01T05:38:05;8.70;99.90
21459;DHT22;10891;49.350;19.386;2023-04-01T05:40:33;9.10;99.90
21459;DHT22;10891;49.350;19.386;2023-04-01T05:43:00;9.20;99.90
21459;DHT22;10891;49.350;19.386;2023-04-01T05:45:27;9.30;99.90
21459;DHT22;10891;49.350;19.386;2023-04-01T05:47:56;9.30;99.90
21459;DHT22;10891;49.350;19.386;2023-04-01T05:50:23;9.20;99.90
21459;DHT22;10891;49.350;19.386;2023-04-01T05:52:50;9.20;99.90
21459;DHT22;10891;49.350;19.386;2023-04-01T05:55:18;9.30;99.90
21459;DHT22;10891;49.350;19.386;2023-04-01T05:57:46;9.30;99.90
21459;DHT22;10891;49.350;19.386;2023-04-01T06:00:14;9.40;99.90
21459;DHT22;10891;49.350;19.386;2023-04-01T06:02:42;9.30;99.90
21459;DHT22;10891;49.350;19.386;2023-04-01T06:05:18;9.30;99.90
21459;DHT22;10891;49.350;19.386;2023-04-01T06:07:46;9.30;99.90
21459;DHT22;10891;49.350;19.386;2023-04-01T06:10:16;9.50;99.90
21459;DHT22;10891;49.350;19.386;2023-04-01T06:12:54;9.60;99.90
21459;DHT22;10891;49.350;19.386;2023-04-01T06:15:33;9.70;99.90
21459;DHT22;10891;49.350;19.386;2023-04-01T06:18:31;9.90;99.90
21459;DHT22;10891;49.350;19.386;2023-04-01T06:21:11;10.00;99.90
21459;DHT22;10891;49.350;19.386;2023-04-01T06:23:51;9.90;99.90
21459;DHT22;10891;49.350;19.386;2023-04-01T06:26:30;10.00;99.90
21459;DHT22;10891;49.350;19.386;2023-04-01T06:29:22;10.00;99.90
21459;DHT22;10891;49.350;19.386;2023-04-01T06:32:14;10.20;99.90
21459;DHT22;10891;49.350;19.386;2023-04-01T06:40:54;10.20;99.90
21459;DHT22;10891;49.350;19.386;2023-04-01T06:43:29;10.10;99.90
21459;DHT22;10891;49.350;19.386;2023-04-01T06:46:02;9.90;99.90
21459;DHT22;10891;49.350;19.386;2023-04-01T06:48:53;9.60;99.90
21459;DHT22;10891;49.350;19.386;2023-04-01T06:51:26;9.40;99.90
21459;DHT22;10891;49.350;19.386;2023-04-01T06:54:04;9.50;99.90
21459;DHT22;10891;49.350;19.386;2023-04-01T06:56:33;9.40;99.90
21459;DHT22;10891;49.350;19.386;2023-04-01T06:59:06;9.40;99.90
21459;DHT22;10891;49.350;19.386;2023-04-01T07:01:38;9.40;99.90
21459;DHT22;10891;49.350;19.386;2023-04-01T07:04:11;9.40;99.90
21459;DHT22;10891;49.350;19.386;2023-04-01T07:06:43;9.50;99.90
21459;DHT22;10891;49.350;19.386;2023-04-01T07:09:16;9.80;99.90
21459;DHT22;10891;49.350;19.386;2023-04-01T07:11:45;10.00;99.90
21459;DHT22;10891;49.350;19.386;2023-04-01T07:14:17;10.30;99.90
21459;DHT22;10891;49.350;19.386;2023-04-01T07:16:51;10.80;99.90
21459;DHT22;10891;49.350;19.386;2023-04-01T07:19:22;11.30;99.90
21459;DHT22;10891;49.350;19.386;2023-04-01T07:21:54;11.90;99.90
21459;DHT22;10891;49.350;19.386;2023-04-01T07:24:26;12.20;99.90
21459;DHT22;10891;49.350;19.386;2023-04-01T07:26:55;12.20;99.90
21459;DHT22;10891;49.350;19.386;2023-04-01T07:29:23;12.10;99.90
21459;DHT22;10891;49.350;19.386;2023-04-01T07:32:09;12.10;99.90
21459;DHT22;10891;49.350;19.386;2023-04-01T07:34:47;12.20;99.90
21459;DHT22;10891;49.350;19.386;2023-04-01T07:37:22;12.40;99.90
21459;DHT22;10891;49.350;19.386;2023-04-01T07:40:00;12.60;99.90
21459;DHT22;10891;49.350;19.386;2023-04-01T07:42:38;12.60;99.90
21459;DHT22;10891;49.350;19.386;2023-04-01T07:45:15;12.60;99.90
21459;DHT22;10891;49.350;19.386;2023-04-01T07:47:53;11.90;99.90
21459;DHT22;10891;49.350;19.386;2023-04-01T07:50:27;11.50;99.90
21459;DHT22;10891;49.350;19.386;2023-04-01T07:53:05;11.10;99.90
21459;DHT22;10891;49.350;19.386;2023-04-01T07:55:40;10.80;99.90
21459;DHT22;10891;49.350;19.386;2023-04-01T07:58:12;10.20;99.90
21459;DHT22;10891;49.350;19.386;2023-04-01T08:00:46;10.10;99.90
21459;DHT22;10891;49.350;19.386;2023-04-01T08:03:28;10.00;99.90
21459;DHT22;10891;49.350;19.386;2023-04-01T08:06:00;10.10;99.90
21459;DHT22;10891;49.350;19.386;2023-04-01T08:08:35;10.20;99.90
21459;DHT22;10891;49.350;19.386;2023-04-01T08:11:15;10.30;99.90
21459;DHT22;10891;49.350;19.386;2023-04-01T08:13:53;10.40;99.90
21459;DHT22;10891;49.350;19.386;2023-04-01T08:16:33;10.70;99.90
21459;DHT22;10891;49.350;19.386;2023-04-01T08:19:09;11.20;99.90
21459;DHT22;10891;49.350;19.386;2023-04-01T08:21:43;11.40;99.90
21459;DHT22;10891;49.350;19.386;2023-04-01T08:24:26;11.30;99.90
21459;DHT22;10891;49.350;19.386;2023-04-01T08:26:58;11.40;99.90
21459;DHT22;10891;49.350;19.386;2023-04-01T08:29:34;11.40;99.90
21459;DHT22;10891;49.350;19.386;2023-04-01T08:32:08;11.10;99.90
21459;DHT22;10891;49.350;19.386;2023-04-01T08:34:40;11.10;99.90
21459;DHT22;10891;49.350;19.386;2023-04-01T08:37:11;11.00;99.90
21459;DHT22;10891;49.350;19.386;2023-04-01T08:39:42;11.30;99.90
21459;DHT22;10891;49.350;19.386;2023-04-01T08:45:43;12.40;99.90
21459;DHT22;10891;49.350;19.386;2023-04-01T08:48:35;12.50;99.90
21459;DHT22;10891;49.350;19.386;2023-04-01T08:51:44;12.30;99.90
21459;DHT22;10891;49.350;19.386;2023-04-01T08:57:24;12.20;99.90
21459;DHT22;10891;49.350;19.386;2023-04-01T09:00:09;12.40;99.90
21459;DHT22;10891;49.350;19.386;2023-04-01T09:02:51;12.70;99.90
21459;DHT22;10891;49.350;19.386;2023-04-01T09:05:35;13.10;99.90
21459;DHT22;10891;49.350;19.386;2023-04-01T09:08:12;13.50;99.90
21459;DHT22;10891;49.350;19.386;2023-04-01T09:19:36;14.20;99.90
21459;DHT22;10891;49.350;19.386;2023-04-01T09:22:22;14.60;99.90
21459;DHT22;10891;49.350;19.386;2023-04-01T09:28:09;14.20;99.90
21459;DHT22;10891;49.350;19.386;2023-04-01T09:30:48;13.70;99.90
21459;DHT22;10891;49.350;19.386;2023-04-01T09:33:52;13.10;99.90
21459;DHT22;10891;49.350;19.386;2023-04-01T09:39:34;12.70;99.90
21459;DHT22;10891;49.350;19.386;2023-04-01T09:42:23;12.40;99.90
21459;DHT22;10891;49.350;19.386;2023-04-01T09:44:58;12.10;99.90
21459;DHT22;10891;49.350;19.386;2023-04-01T09:47:42;11.90;99.90
21459;DHT22;10891;49.350;19.386;2023-04-01T09:50:35;11.60;99.90
21459;DHT22;10891;49.350;19.386;2023-04-01T09:53:19;11.60;99.90
21459;DHT22;10891;49.350;19.386;2023-04-01T09:56:01;11.30;99.90
21459;DHT22;10891;49.350;19.386;2023-04-01T09:58:57;11.30;99.90
21459;DHT22;10891;49.350;19.386;2023-04-01T10:01:45;11.20;99.90
21459;DHT22;10891;49.350;19.386;2023-04-01T10:05:00;11.10;99.90
21459;DHT22;10891;49.350;19.386;2023-04-01T10:14:23;11.50;99.90
21459;DHT22;10891;49.350;19.386;2023-04-01T10:17:24;12.10;99.90
21459;DHT22;10891;49.350;19.386;2023-04-01T10:20:36;13.00;99.90
21459;DHT22;10891;49.350;19.386;2023-04-01T10:23:36;13.50;99.90
21459;DHT22;10891;49.350;19.386;2023-04-01T10:26:29;13.80;99.90
21459;DHT22;10891;49.350;19.386;2023-04-01T10:32:31;13.30;99.90
21459;DHT22;10891;49.350;19.386;2023-04-01T10:38:39;11.70;99.90
21459;DHT22;10891;49.350;19.386;2023-04-01T10:51:04;11.60;99.90
21459;DHT22;10891;49.350;19.386;2023-04-01T10:53:46;11.90;99.90
21459;DHT22;10891;49.350;19.386;2023-04-01T10:56:42;12.20;99.90
21459;DHT22;10891;49.350;19.386;2023-04-01T10:59:42;12.60;99.90
21459;DHT22;10891;49.350;19.386;2023-04-01T11:21:20;15.80;99.90
21459;DHT22;10891;49.350;19.386;2023-04-01T11:26:50;14.20;99.90
21459;DHT22;10891;49.350;19.386;2023-04-01T11:32:39;13.20;99.90
21459;DHT22;10891;49.350;19.386;2023-04-01T11:35:49;13.00;99.90
21459;DHT22;10891;49.350;19.386;2023-04-01T11:38:44;12.40;99.90
21459;DHT22;10891;49.350;19.386;2023-04-01T11:41:26;12.20;99.90
21459;DHT22;10891;49.350;19.386;2023-04-01T11:44:09;11.90;99.90
21459;DHT22;10891;49.350;19.386;2023-04-01T11:46:46;12.10;99.90
21459;DHT22;10891;49.350;19.386;2023-04-01T11:49:36;12.60;99.90
21459;DHT22;10891;49.350;19.386;2023-04-01T11:52:25;12.70;99.90
21459;DHT22;10891;49.350;19.386;2023-04-01T11:55:08;12.90;99.90
21459;DHT22;10891;49.350;19.386;2023-04-01T11:58:07;13.10;99.90
21459;DHT22;10891;49.350;19.386;2023-04-01T12:01:05;13.20;99.90
21459;DHT22;10891;49.350;19.386;2023-04-01T12:03:50;13.40;99.90
21459;DHT22;10891;49.350;19.386;2023-04-01T12:06:29;13.00;99.90
21459;DHT22;10891;49.350;19.386;2023-04-01T12:09:01;13.10;99.90
21459;DHT22;10891;49.350;19.386;2023-04-01T12:11:37;13.20;99.90
21459;DHT22;10891;49.350;19.386;2023-04-01T12:14:13;13.00;99.90
21459;DHT22;10891;49.350;19.386;2023-04-01T12:16:57;12.90;99.90
21459;DHT22;10891;49.350;19.386;2023-04-01T12:19:34;12.50;99.90
21459;DHT22;10891;49.350;19.386;2023-04-01T12:22:23;12.80;99.90
21459;DHT22;10891;49.350;19.386;2023-04-01T12:24:58;13.10;99.90
21459;DHT22;10891;49.350;19.386;2023-04-01T12:27:43;13.20;99.90
21459;DHT22;10891;49.350;19.386;2023-04-01T12:30:30;12.70;99.90
21459;DHT22;10891;49.350;19.386;2023-04-01T12:33:24;12.70;99.90
21459;DHT22;10891;49.350;19.386;2023-04-01T12:36:03;12.60;99.90
21459;DHT22;10891;49.350;19.386;2023-04-01T12:38:42;12.60;99.90
21459;DHT22;10891;49.350;19.386;2023-04-01T12:41:17;12.40;99.90
21459;DHT22;10891;49.350;19.386;2023-04-01T12:44:23;12.00;99.90
21459;DHT22;10891;49.350;19.386;2023-04-01T12:47:16;11.90;99.90
21459;DHT22;10891;49.350;19.386;2023-04-01T12:49:57;12.00;99.90
21459;DHT22;10891;49.350;19.386;2023-04-01T12:52:45;11.90;99.90
21459;DHT22;10891;49.350;19.386;2023-04-01T12:55:43;12.10;99.90
21459;DHT22;10891;49.350;19.386;2023-04-01T13:01:48;13.10;99.90
21459;DHT22;10891;49.350;19.386;2023-04-01T13:04:45;13.50;99.90
21459;DHT22;10891;49.350;19.386;2023-04-01T13:10:37;14.00;99.90
21459;DHT22;10891;49.350;19.386;2023-04-01T13:13:21;13.80;99.90
21459;DHT22;10891;49.350;19.386;2023-04-01T13:15:59;13.70;99.90
21459;DHT22;10891;49.350;19.386;2023-04-01T13:18:35;13.30;99.90
21459;DHT22;10891;49.350;19.386;2023-04-01T13:21:12;12.60;99.90
21459;DHT22;10891;49.350;19.386;2023-04-01T13:23:52;12.20;99.90
21459;DHT22;10891;49.350;19.386;2023-04-01T13:26:27;12.00;99.90
21459;DHT22;10891;49.350;19.386;2023-04-01T13:29:03;12.10;99.90
21459;DHT22;10891;49.350;19.386;2023-04-01T13:31:55;12.40;99.90
21459;DHT22;10891;49.350;19.386;2023-04-01T13:34:34;12.40;99.90
21459;DHT22;10891;49.350;19.386;2023-04-01T13:40:11;12.80;99.90
21459;DHT22;10891;49.350;19.386;2023-04-01T13:42:47;13.00;99.90
21459;DHT22;10891;49.350;19.386;2023-04-01T13:45:19;12.90;99.90
21459;DHT22;10891;49.350;19.386;2023-04-01T13:51:13;12.90;99.90
21459;DHT22;10891;49.350;19.386;2023-04-01T13:54:04;12.90;99.90
21459;DHT22;10891;49.350;19.386;2023-04-01T13:56:45;13.10;99.90
21459;DHT22;10891;49.350;19.386;2023-04-01T14:02:36;12.80;99.90
21459;DHT22;10891;49.350;19.386;2023-04-01T14:05:32;12.60;99.90
21459;DHT22;10891;49.350;19.386;2023-04-01T14:08:10;12.30;99.90
21459;DHT22;10891;49.350;19.386;2023-04-01T14:10:45;12.40;99.90
21459;DHT22;10891;49.350;19.386;2023-04-01T14:13:20;12.40;99.90
21459;DHT22;10891;49.350;19.386;2023-04-01T14:16:00;12.60;99.90
21459;DHT22;10891;49.350;19.386;2023-04-01T14:18:57;12.60;99.90
21459;DHT22;10891;49.350;19.386;2023-04-01T14:21:33;12.50;99.90
21459;DHT22;10891;49.350;19.386;2023-04-01T14:27:35;12.10;99.90
21459;DHT22;10891;49.350;19.386;2023-04-01T14:33:28;11.90;99.90
21459;DHT22;10891;49.350;19.386;2023-04-01T14:36:11;11.90;99.90
21459;DHT22;10891;49.350;19.386;2023-04-01T14:38:51;11.80;99.90
21459;DHT22;10891;49.350;19.386;2023-04-01T14:41:32;11.70;99.90
21459;DHT22;10891;49.350;19.386;2023-04-01T14:50:11;11.30;99.90
21459;DHT22;10891;49.350;19.386;2023-04-01T14:52:42;12.00;99.90
21459;DHT22;10891;49.350;19.386;2023-04-01T14:55:21;12.00;99.90
21459;DHT22;10891;49.350;19.386;2023-04-01T14:57:59;11.70;99.90
21459;DHT22;10891;49.350;19.386;2023-04-01T15:00:27;11.30;99.90
21459;DHT22;10891;49.350;19.386;2023-04-01T15:03:13;10.90;99.90
21459;DHT22;10891;49.350;19.386;2023-04-01T15:05:49;10.80;99.90
21459;DHT22;10891;49.350;19.386;2023-04-01T15:08:20;10.80;99.90
21459;DHT22;10891;49.350;19.386;2023-04-01T15:11:06;10.70;99.90
21459;DHT22;10891;49.350;19.386;2023-04-01T15:14:06;10.60;99.90
21459;DHT22;10891;49.350;19.386;2023-04-01T15:16:44;10.70;99.90
21459;DHT22;10891;49.350;19.386;2023-04-01T15:19:20;10.80;99.90
21459;DHT22;10891;49.350;19.386;2023-04-01T15:22:29;10.80;99.90
21459;DHT22;10891;49.350;19.386;2023-04-01T15:25:23;10.70;99.90
21459;DHT22;10891;49.350;19.386;2023-04-01T15:28:00;10.70;99.90
21459;DHT22;10891;49.350;19.386;2023-04-01T15:30:34;10.60;99.90
21459;DHT22;10891;49.350;19.386;2023-04-01T15:33:29;10.60;99.90
21459;DHT22;10891;49.350;19.386;2023-04-01T15:36:07;10.60;99.90
21459;DHT22;10891;49.350;19.386;2023-04-01T15:38:46;10.60;99.90
21459;DHT22;10891;49.350;19.386;2023-04-01T15:41:20;10.50;99.90
21459;DHT22;10891;49.350;19.386;2023-04-01T15:43:51;10.50;99.90
21459;DHT22;10891;49.350;19.386;2023-04-01T15:46:41;10.50;99.90
21459;DHT22;10891;49.350;19.386;2023-04-01T15:49:31;10.40;99.90
21459;DHT22;10891;49.350;19.386;2023-04-01T15:52:07;10.30;99.90
21459;DHT22;10891;49.350;19.386;2023-04-01T15:57:44;10.10;99.90
21459;DHT22;10891;49.350;19.386;2023-04-01T16:00:29;9.90;99.90
21459;DHT22;10891;49.350;19.386;2023-04-01T16:03:27;9.80;99.90
21459;DHT22;10891;49.350;19.386;2023-04-01T16:06:46;9.70;99.90
21459;DHT22;10891;49.350;19.386;2023-04-01T16:09:43;9.60;99.90
21459;DHT22;10891;49.350;19.386;2023-04-01T16:12:23;9.40;99.90
21459;DHT22;10891;49.350;19.386;2023-04-01T16:15:03;9.30;99.90
21459;DHT22;10891;49.350;19.386;2023-04-01T16:20:45;9.10;99.90
21459;DHT22;10891;49.350;19.386;2023-04-01T16:23:18;9.00;99.90
21459;DHT22;10891;49.350;19.386;2023-04-01T16:25:53;8.90;99.90
21459;DHT22;10891;49.350;19.386;2023-04-01T16:28:30;8.70;99.90
21459;DHT22;10891;49.350;19.386;2023-04-01T16:31:03;8.60;99.90
21459;DHT22;10891;49.350;19.386;2023-04-01T16:33:38;8.40;99.90
21459;DHT22;10891;49.350;19.386;2023-04-01T16:36:20;8.30;99.90
21459;DHT22;10891;49.350;19.386;2023-04-01T16:38:53;8.10;99.90
21459;DHT22;10891;49.350;19.386;2023-04-01T16:41:25;8.00;99.90
21459;DHT22;10891;49.350;19.386;2023-04-01T16:44:09;7.90;99.90
21459;DHT22;10891;49.350;19.386;2023-04-01T16:46:41;7.90;99.90
21459;DHT22;10891;49.350;19.386;2023-04-01T16:49:27;7.80;99.90
21459;DHT22;10891;49.350;19.386;2023-04-01T16:52:04;7.70;99.90
21459;DHT22;10891;49.350;19.386;2023-04-01T16:54:45;7.70;99.90
21459;DHT22;10891;49.350;19.386;2023-04-01T16:57:25;7.60;99.90
21459;DHT22;10891;49.350;19.386;2023-04-01T17:00:03;7.50;99.90
21459;DHT22;10891;49.350;19.386;2023-04-01T17:02:47;7.40;99.90
21459;DHT22;10891;49.350;19.386;2023-04-01T17:05:18;7.40;99.90
21459;DHT22;10891;49.350;19.386;2023-04-01T17:07:54;7.30;99.90
21459;DHT22;10891;49.350;19.386;2023-04-01T17:10:40;7.30;99.90
21459;DHT22;10891;49.350;19.386;2023-04-01T17:13:33;7.20;99.90
21459;DHT22;10891;49.350;19.386;2023-04-01T17:16:19;7.10;99.90
21459;DHT22;10891;49.350;19.386;2023-04-01T17:18:56;7.10;99.90
21459;DHT22;10891;49.350;19.386;2023-04-01T17:21:32;7.10;99.90
21459;DHT22;10891;49.350;19.386;2023-04-01T17:24:04;7.10;99.90
21459;DHT22;10891;49.350;19.386;2023-04-01T17:26:42;7.20;99.90
21459;DHT22;10891;49.350;19.386;2023-04-01T17:29:20;7.30;99.90
21459;DHT22;10891;49.350;19.386;2023-04-01T17:31:57;7.40;99.90
21459;DHT22;10891;49.350;19.386;2023-04-01T17:34:41;7.50;99.90
21459;DHT22;10891;49.350;19.386;2023-04-01T17:37:22;7.60;99.90
21459;DHT22;10891;49.350;19.386;2023-04-01T17:40:00;7.60;99.90
21459;DHT22;10891;49.350;19.386;2023-04-01T17:42:38;7.70;99.90
21459;DHT22;10891;49.350;19.386;2023-04-01T17:45:16;7.70;99.90
21459;DHT22;10891;49.350;19.386;2023-04-01T17:48:04;7.70;99.90
21459;DHT22;10891;49.350;19.386;2023-04-01T17:50:47;7.70;99.90
21459;DHT22;10891;49.350;19.386;2023-04-01T17:53:24;7.70;99.90
21459;DHT22;10891;49.350;19.386;2023-04-01T17:56:03;7.80;99.90
21459;DHT22;10891;49.350;19.386;2023-04-01T17:58:36;7.80;99.90
21459;DHT22;10891;49.350;19.386;2023-04-01T18:01:20;7.80;99.90
21459;DHT22;10891;49.350;19.386;2023-04-01T18:04:05;7.70;99.90
21459;DHT22;10891;49.350;19.386;2023-04-01T18:06:36;7.60;99.90
21459;DHT22;10891;49.350;19.386;2023-04-01T18:09:16;7.50;99.90
21459;DHT22;10891;49.350;19.386;2023-04-01T18:11:57;7.50;99.90
21459;DHT22;10891;49.350;19.386;2023-04-01T18:14:54;7.40;99.90